Terminal Aerodrome Forecast
Issued by NWS

Home | Current Version | Previous Version | Text Only | Print | Product List | Glossary On
Versions: 1 2 3 4 5 6 7 8 9 10 11 12 13 14 15 16 17 18
764
FTUS42 KMLB 302320
TAFLEE
TAF
KLEE 302320Z 3100/3124 VRB05KT P6SM FEW045 BKN100 BKN250
     FM310100 15004KT P6SM FEW050 SCT100 BKN250
     FM310600 16003KT P6SM SCT250
     FM311500 16005KT P6SM FEW035
     FM312200 13008KT P6SM VCTS SCT050CB=

USA.gov is the U.S. government's official web portal to all federal, state and local government web resources and services.